Time;durP1;ratioP1;P1;durP2;ratioP2;P2;SDS_P1;SDS_P2;PMS_P1;PMS_P2;Temp;Humidity;BMP_temperature;BMP_pressure;BME280_temperature;BME280_humidity;BME280_pressure;Samples;Min_cycle;Max_cycle;Signal;HPM_P1;HPM_P2
2023/06/04 00:02:18;;;;;;;5.65;2.13;;;14.00;68.70;;;;;;5092508;28;20039;-77
2023/06/04 00:04:44;;;;;;;4.93;2.05;;;13.90;68.90;;;;;;5092713;28;20031;-77
2023/06/04 00:07:10;;;;;;;2.33;1.80;;;13.90;68.80;;;;;;5096646;28;20186;-77
2023/06/04 00:09:36;;;;;;;2.20;1.65;;;13.90;68.90;;;;;;5096239;27;20143;-77
2023/06/04 00:12:02;;;;;;;2.38;2.00;;;13.90;69.00;;;;;;5096445;28;20456;-77
2023/06/04 00:14:28;;;;;;;3.85;1.90;;;13.90;69.00;;;;;;5094771;28;20040;-77
2023/06/04 00:16:54;;;;;;;2.53;1.88;;;13.90;68.80;;;;;;5095547;28;20083;-75
2023/06/04 00:19:20;;;;;;;3.78;2.03;;;13.90;68.70;;;;;;5096924;28;20069;-77
2023/06/04 00:21:46;;;;;;;1.88;1.65;;;13.90;68.80;;;;;;5096718;27;20103;-77
2023/06/04 00:24:12;;;;;;;2.55;1.80;;;13.90;68.80;;;;;;5096156;28;20149;-77
2023/06/04 00:26:38;;;;;;;2.83;1.50;;;13.80;68.70;;;;;;5095857;28;20028;-77
2023/06/04 00:29:04;;;;;;;4.88;1.88;;;13.80;68.50;;;;;;5096320;27;20383;-77
2023/06/04 00:31:30;;;;;;;1.88;1.70;;;13.90;68.30;;;;;;5096231;28;20031;-77
2023/06/04 00:33:56;;;;;;;2.50;1.30;;;13.80;68.70;;;;;;5095153;28;20043;-77
2023/06/04 00:36:22;;;;;;;4.53;1.83;;;13.80;68.10;;;;;;5095048;28;20077;-77
2023/06/04 00:38:48;;;;;;;2.97;1.90;;;13.80;68.00;;;;;;5093893;28;20032;-77
2023/06/04 00:41:14;;;;;;;2.80;1.40;;;13.80;68.70;;;;;;5095995;28;21482;-76
2023/06/04 00:43:40;;;;;;;3.40;1.90;;;13.80;68.10;;;;;;5094797;28;20020;-77
2023/06/04 00:46:06;;;;;;;2.03;1.52;;;13.80;68.30;;;;;;5094689;28;20065;-77
2023/06/04 00:48:32;;;;;;;5.93;1.60;;;13.80;68.30;;;;;;5094165;28;20414;-77
2023/06/04 00:51:00;;;;;;;2.20;1.48;;;13.70;68.20;;;;;;5096492;28;20032;-77
2023/06/04 00:53:26;;;;;;;2.60;1.90;;;13.70;68.20;;;;;;5094844;28;20052;-77
2023/06/04 00:55:52;;;;;;;2.58;1.42;;;13.70;68.10;;;;;;5095935;28;20039;-77
2023/06/04 00:58:18;;;;;;;4.45;1.80;;;13.70;68.00;;;;;;5095277;28;20467;-77
2023/06/04 01:00:45;;;;;;;3.55;1.77;;;13.70;68.10;;;;;;5095782;28;20444;-77
2023/06/04 01:03:16;;;;;;;3.30;1.70;;;13.70;68.20;;;;;;5094263;28;20414;-76
2023/06/04 01:06:08;;;;;;;3.53;1.48;;;13.70;68.40;;;;;;5065431;28;20464;-76
2023/06/04 01:08:35;;;;;;;2.58;1.58;;;13.70;68.50;;;;;;5093618;28;20031;-77
2023/06/04 01:11:01;;;;;;;3.55;1.50;;;13.70;68.40;;;;;;5097378;28;20063;-76
2023/06/04 01:13:27;;;;;;;2.40;1.55;;;13.70;68.30;;;;;;5095746;28;20035;-77
2023/06/04 01:15:53;;;;;;;3.28;1.40;;;13.70;68.30;;;;;;5094218;28;20048;-75
2023/06/04 01:18:29;;;;;;;1.70;1.35;;;13.60;68.10;;;;;;5094829;28;20039;-76
2023/06/04 01:21:01;;;;;;;6.75;2.08;;;13.70;68.20;;;;;;5093202;28;20085;-76
2023/06/04 01:24:00;;;;;;;5.05;1.70;;;13.60;68.10;;;;;;5093788;28;20036;-77
2023/06/04 01:26:31;;;;;;;1.65;1.55;;;13.70;68.10;;;;;;5093345;28;20035;-78
2023/06/04 01:28:58;;;;;;;1.80;1.70;;;13.70;68.10;;;;;;5093293;28;20032;-77
2023/06/04 01:31:25;;;;;;;2.40;1.40;;;13.80;68.20;;;;;;5083190;28;20084;-77
2023/06/04 01:33:57;;;;;;;2.83;1.27;;;13.80;68.10;;;;;;5094930;28;20039;-77
2023/06/04 01:36:24;;;;;;;3.22;1.38;;;13.90;67.90;;;;;;5095212;28;20039;-76
2023/06/04 01:38:51;;;;;;;2.35;1.35;;;13.90;67.80;;;;;;5094135;27;20040;-76
2023/06/04 01:41:17;;;;;;;1.45;1.25;;;13.90;68.30;;;;;;5092335;28;20529;-77
2023/06/04 01:43:43;;;;;;;1.60;1.33;;;13.90;67.70;;;;;;5096065;28;20035;-78
2023/06/04 01:46:10;;;;;;;1.48;1.00;;;13.90;67.30;;;;;;5095163;28;20038;-76
2023/06/04 01:48:37;;;;;;;2.45;1.38;;;13.80;67.40;;;;;;5094613;28;20028;-75
2023/06/04 01:51:03;;;;;;;1.20;1.10;;;13.80;67.40;;;;;;5093169;28;20035;-77
2023/06/04 01:53:30;;;;;;;3.38;1.40;;;13.90;67.40;;;;;;5095267;28;20467;-76
2023/06/04 01:55:57;;;;;;;2.03;1.48;;;13.80;67.40;;;;;;5094572;28;20494;-78
2023/06/04 01:58:26;;;;;;;3.95;1.27;;;13.80;67.40;;;;;;5093367;28;20127;-78
2023/06/04 02:00:54;;;;;;;4.38;1.65;;;13.90;67.50;;;;;;5068366;28;20032;-78
2023/06/04 02:03:21;;;;;;;1.52;1.42;;;13.90;67.50;;;;;;5091770;28;20080;-77
2023/06/04 02:05:48;;;;;;;2.25;1.25;;;13.80;67.40;;;;;;5093347;28;20036;-78
2023/06/04 02:08:21;;;;;;;1.88;1.10;;;13.90;67.50;;;;;;5093655;28;20039;-76
2023/06/04 02:10:48;;;;;;;1.95;1.10;;;13.80;67.50;;;;;;5080088;28;20139;-76
2023/06/04 02:13:14;;;;;;;1.75;1.20;;;13.90;67.30;;;;;;5094560;28;20032;-77
2023/06/04 02:15:41;;;;;;;1.30;1.10;;;13.90;67.40;;;;;;5094456;28;20058;-76
2023/06/04 02:18:17;;;;;;;1.25;1.13;;;13.90;67.20;;;;;;5092685;28;20032;-78
2023/06/04 02:20:44;;;;;;;3.63;1.10;;;14.00;67.10;;;;;;5092989;28;20066;-76
2023/06/04 02:23:11;;;;;;;1.75;1.20;;;14.10;66.90;;;;;;5092850;28;20027;-76
2023/06/04 02:25:37;;;;;;;2.40;1.33;;;14.20;67.00;;;;;;5094111;28;20530;-76
2023/06/04 02:28:03;;;;;;;1.52;1.00;;;14.30;66.90;;;;;;5093840;28;20068;-76
2023/06/04 02:30:29;;;;;;;2.30;1.02;;;14.40;66.80;;;;;;5094285;28;20047;-76
2023/06/04 02:32:56;;;;;;;1.25;1.15;;;14.50;66.80;;;;;;5091860;28;20088;-74
2023/06/04 02:35:23;;;;;;;1.08;0.85;;;14.60;66.60;;;;;;5093510;28;20043;-77
2023/06/04 02:37:52;;;;;;;1.05;0.90;;;14.70;66.30;;;;;;5097161;28;20579;-77
2023/06/04 02:40:18;;;;;;;1.45;1.10;;;14.80;65.90;;;;;;5096546;28;20044;-77
2023/06/04 02:42:44;;;;;;;2.05;0.98;;;14.90;65.50;;;;;;5099013;28;20047;-75
2023/06/04 02:45:11;;;;;;;2.10;1.40;;;15.00;65.40;;;;;;5098432;28;20027;-77
2023/06/04 02:47:37;;;;;;;1.50;1.20;;;15.10;64.90;;;;;;5098802;28;20464;-76
2023/06/04 02:50:04;;;;;;;2.00;1.13;;;15.20;65.00;;;;;;5094283;28;20028;-78
2023/06/04 02:52:30;;;;;;;1.92;0.77;;;15.30;64.40;;;;;;5077984;28;20414;-78
2023/06/04 02:54:57;;;;;;;1.13;1.00;;;15.40;64.60;;;;;;5097173;28;20064;-76
2023/06/04 02:57:23;;;;;;;5.63;1.20;;;15.50;64.50;;;;;;5096911;28;20414;-77
2023/06/04 02:59:49;;;;;;;2.13;0.88;;;15.60;64.10;;;;;;5095529;28;20040;-78
2023/06/04 03:02:15;;;;;;;2.67;1.10;;;15.70;63.00;;;;;;5096703;28;20424;-77
2023/06/04 03:04:42;;;;;;;1.83;0.98;;;15.70;62.70;;;;;;5097873;28;20034;-79
2023/06/04 03:07:11;;;;;;;1.40;1.02;;;15.70;62.40;;;;;;5097105;28;20601;-79
2023/06/04 03:09:37;;;;;;;1.30;1.20;;;15.70;62.20;;;;;;5096913;28;20171;-77
2023/06/04 03:12:04;;;;;;;1.55;0.80;;;15.80;62.30;;;;;;5097322;28;20032;-80
2023/06/04 03:14:32;;;;;;;1.17;1.05;;;15.70;62.50;;;;;;5095937;28;20080;-80
2023/06/04 03:17:07;;;;;;;2.05;0.90;;;15.70;62.50;;;;;;5097355;28;20688;-80
2023/06/04 03:19:35;;;;;;;1.38;0.95;;;15.70;62.70;;;;;;5096360;28;20043;-79
2023/06/04 03:22:05;;;;;;;0.80;0.80;;;15.70;62.80;;;;;;5095946;28;20593;-79
2023/06/04 03:24:36;;;;;;;2.83;1.00;;;15.80;62.50;;;;;;5097175;28;20036;-78
2023/06/04 03:27:03;;;;;;;1.00;0.90;;;15.90;62.30;;;;;;5084105;28;20035;-77
2023/06/04 03:29:31;;;;;;;1.90;1.00;;;16.00;62.20;;;;;;5078212;28;20035;-78
2023/06/04 03:32:00;;;;;;;1.80;0.80;;;16.10;62.20;;;;;;5095413;28;20079;-75
2023/06/04 03:34:27;;;;;;;1.90;1.00;;;16.30;62.20;;;;;;5096096;28;20060;-77
2023/06/04 03:36:54;;;;;;;1.42;0.93;;;16.40;62.10;;;;;;5099121;28;20475;-77
2023/06/04 03:39:21;;;;;;;0.73;0.60;;;16.60;62.20;;;;;;5097247;28;20043;-78
2023/06/04 03:41:47;;;;;;;1.70;0.98;;;16.70;62.30;;;;;;5096503;27;20469;-76
2023/06/04 03:44:15;;;;;;;2.28;0.80;;;16.80;62.30;;;;;;5095417;27;20530;-76
2023/06/04 03:46:42;;;;;;;1.58;0.80;;;17.00;62.10;;;;;;5079745;28;20024;-78
2023/06/04 03:49:13;;;;;;;1.65;0.70;;;17.10;62.20;;;;;;5081180;28;20032;-77
2023/06/04 03:51:39;;;;;;;2.58;1.10;;;17.20;61.80;;;;;;5094743;28;20038;-77
2023/06/04 03:54:06;;;;;;;0.85;0.70;;;17.40;61.80;;;;;;5095916;28;20102;-79
2023/06/04 03:56:33;;;;;;;0.95;0.75;;;17.50;61.40;;;;;;5094670;28;20039;-78
2023/06/04 03:59:00;;;;;;;3.70;0.85;;;17.60;61.60;;;;;;5094826;28;20122;-78
2023/06/04 04:01:28;;;;;;;0.95;0.85;;;17.80;61.20;;;;;;5096137;28;20028;-79
2023/06/04 04:03:56;;;;;;;2.72;1.00;;;17.90;61.30;;;;;;5094729;28;20036;-77
2023/06/04 04:06:22;;;;;;;1.33;0.73;;;18.10;61.10;;;;;;5096404;28;20035;-78
2023/06/04 04:08:49;;;;;;;0.70;0.57;;;18.20;61.40;;;;;;5081325;28;20040;-77
2023/06/04 04:11:17;;;;;;;1.05;0.60;;;18.30;60.70;;;;;;5093679;28;20058;-78
2023/06/04 04:13:46;;;;;;;0.93;0.73;;;18.50;60.40;;;;;;5079556;28;20028;-79
2023/06/04 04:16:12;;;;;;;1.15;0.70;;;18.60;60.20;;;;;;5095085;28;20149;-79
2023/06/04 04:18:46;;;;;;;1.23;0.70;;;18.70;60.70;;;;;;5094599;28;20514;-78
2023/06/04 04:21:12;;;;;;;0.68;0.68;;;18.80;60.30;;;;;;5094977;28;20032;-81
2023/06/04 04:23:42;;;;;;;1.35;0.50;;;18.90;59.90;;;;;;5076701;28;20027;-76
2023/06/04 04:26:16;;;;;;;1.25;0.77;;;19.10;59.20;;;;;;5095331;28;20410;-81
2023/06/04 04:28:44;;;;;;;0.60;0.47;;;19.20;59.30;;;;;;5077478;28;20506;-80
2023/06/04 04:31:10;;;;;;;0.43;0.43;;;19.30;59.50;;;;;;5095933;28;20036;-79
2023/06/04 04:33:39;;;;;;;0.55;0.50;;;19.40;59.20;;;;;;5093943;28;20477;-80
2023/06/04 04:36:12;;;;;;;1.13;0.60;;;19.60;59.00;;;;;;5093342;28;20537;-79
2023/06/04 04:38:40;;;;;;;1.70;0.95;;;19.60;59.00;;;;;;5093984;28;20046;-80
2023/06/04 04:41:07;;;;;;;0.55;0.50;;;19.80;58.60;;;;;;5094485;28;20203;-79
2023/06/04 04:43:36;;;;;;;0.90;0.57;;;19.90;58.60;;;;;;5094483;28;20038;-79
2023/06/04 04:46:10;;;;;;;1.30;0.60;;;20.00;58.60;;;;;;5083413;28;20109;-79
2023/06/04 04:48:38;;;;;;;0.50;0.50;;;20.10;57.70;;;;;;5091437;28;20054;-77
2023/06/04 04:51:04;;;;;;;1.00;0.60;;;20.20;57.90;;;;;;5106282;27;20032;-79
2023/06/04 04:53:30;;;;;;;1.17;0.50;;;20.30;58.00;;;;;;5089794;28;20035;-78
2023/06/04 04:55:57;;;;;;;1.17;0.50;;;20.50;57.80;;;;;;5092730;28;20383;-78
2023/06/04 04:58:23;;;;;;;1.00;0.55;;;20.60;57.60;;;;;;5089145;28;20091;-79
2023/06/04 05:00:50;;;;;;;0.55;0.50;;;20.70;57.70;;;;;;5088480;28;20040;-79
2023/06/04 05:03:16;;;;;;;0.50;0.45;;;20.80;57.50;;;;;;5095249;28;20042;-78
2023/06/04 05:05:43;;;;;;;1.52;0.70;;;20.90;57.10;;;;;;5100947;28;20100;-78
2023/06/04 05:08:11;;;;;;;0.68;0.55;;;21.00;57.50;;;;;;5094441;28;20506;-79
2023/06/04 05:10:40;;;;;;;0.82;0.40;;;21.10;56.20;;;;;;5093364;28;20051;-78
2023/06/04 05:13:07;;;;;;;1.38;0.60;;;21.20;56.30;;;;;;5074706;28;20029;-78
2023/06/04 05:15:52;;;;;;;3.72;0.50;;;21.40;55.90;;;;;;5090878;28;20044;-79
2023/06/04 05:18:28;;;;;;;0.70;0.55;;;21.40;55.90;;;;;;5092403;28;20078;-77
2023/06/04 05:20:59;;;;;;;0.40;0.40;;;21.50;55.70;;;;;;5079524;28;20036;-77
2023/06/04 05:23:26;;;;;;;0.55;0.55;;;21.60;55.80;;;;;;5094344;28;20130;-79
2023/06/04 05:25:52;;;;;;;2.45;0.50;;;21.70;55.50;;;;;;5077081;28;20403;-79
2023/06/04 05:28:20;;;;;;;3.75;0.60;;;21.90;55.00;;;;;;5093335;28;20042;-78
2023/06/04 05:30:48;;;;;;;0.47;0.47;;;22.00;54.80;;;;;;5093672;28;20502;-79
2023/06/04 05:33:17;;;;;;;1.00;0.60;;;22.10;54.90;;;;;;5093056;28;20040;-77
2023/06/04 05:35:48;;;;;;;0.98;0.50;;;22.30;53.40;;;;;;5091903;28;20138;-78
2023/06/04 05:38:18;;;;;;;1.02;0.60;;;22.30;53.90;;;;;;5093386;28;20027;-80
2023/06/04 05:40:45;;;;;;;1.05;0.60;;;22.40;53.10;;;;;;5098296;28;20036;-79
2023/06/04 05:43:12;;;;;;;1.05;0.60;;;22.50;53.80;;;;;;5092352;28;20532;-77
2023/06/04 05:45:38;;;;;;;0.80;0.60;;;22.60;52.90;;;;;;5092624;28;20084;-77
2023/06/04 05:48:05;;;;;;;2.10;0.60;;;22.60;51.50;;;;;;5095067;28;20036;-77
2023/06/04 05:50:31;;;;;;;1.48;0.60;;;22.60;51.30;;;;;;5093551;28;20536;-75
2023/06/04 05:52:58;;;;;;;0.73;0.50;;;22.50;51.50;;;;;;5090698;28;20027;-78
2023/06/04 05:55:24;;;;;;;0.95;0.60;;;22.60;51.90;;;;;;5093707;28;20056;-76
2023/06/04 05:57:51;;;;;;;2.20;0.70;;;22.60;51.40;;;;;;5093204;28;20031;-76
2023/06/04 06:00:18;;;;;;;1.60;0.60;;;22.70;50.60;;;;;;5093070;28;20028;-75
2023/06/04 06:02:48;;;;;;;0.52;0.52;;;22.70;50.20;;;;;;5079666;28;20127;-77
2023/06/04 06:05:27;;;;;;;1.27;0.60;;;22.70;50.00;;;;;;5093479;28;20036;-76
2023/06/04 06:07:55;;;;;;;1.90;0.60;;;22.80;50.40;;;;;;5076373;28;20410;-77
2023/06/04 06:10:22;;;;;;;1.60;0.60;;;22.90;49.80;;;;;;5092915;28;20092;-77
2023/06/04 06:12:48;;;;;;;0.55;0.40;;;22.90;50.10;;;;;;5091562;28;20028;-79
2023/06/04 06:15:15;;;;;;;1.10;0.60;;;22.90;50.00;;;;;;5080793;28;20130;-78
2023/06/04 06:17:43;;;;;;;1.60;0.80;;;23.00;49.20;;;;;;5097252;28;20136;-79
2023/06/04 06:20:09;;;;;;;1.48;0.60;;;23.00;49.70;;;;;;5091986;28;20032;-79
2023/06/04 06:22:36;;;;;;;0.38;0.35;;;23.10;49.80;;;;;;5092229;28;20181;-78
2023/06/04 06:25:05;;;;;;;0.70;0.52;;;23.20;49.50;;;;;;5093136;28;20498;-77
2023/06/04 06:27:33;;;;;;;0.68;0.50;;;23.30;48.60;;;;;;5075861;28;20066;-78
2023/06/04 06:30:00;;;;;;;0.82;0.50;;;23.40;47.80;;;;;;5092293;28;20042;-78
2023/06/04 06:32:27;;;;;;;1.45;0.60;;;23.50;48.40;;;;;;5094640;28;20039;-79
2023/06/04 06:34:53;;;;;;;1.60;0.50;;;23.50;47.70;;;;;;5075473;28;20075;-78
2023/06/04 06:37:19;;;;;;;0.80;0.52;;;23.40;46.60;;;;;;5092804;28;20617;-77
2023/06/04 06:39:45;;;;;;;0.90;0.50;;;23.30;46.40;;;;;;5093937;28;20075;-78
2023/06/04 06:42:11;;;;;;;0.63;0.40;;;23.30;46.60;;;;;;5092668;28;20027;-79
2023/06/04 06:44:40;;;;;;;0.40;0.40;;;23.40;46.50;;;;;;5090766;28;20036;-78
2023/06/04 06:47:06;;;;;;;2.85;0.55;;;23.40;46.40;;;;;;5094311;28;20047;-77
2023/06/04 06:49:32;;;;;;;2.15;0.50;;;23.40;46.90;;;;;;5092843;28;20052;-78
2023/06/04 06:51:58;;;;;;;1.02;0.50;;;23.50;46.70;;;;;;5093519;28;20042;-77
2023/06/04 06:54:24;;;;;;;0.77;0.40;;;23.50;46.30;;;;;;5093062;28;20035;-77
2023/06/04 06:56:50;;;;;;;2.38;0.60;;;23.40;45.70;;;;;;5093388;28;20372;-78
2023/06/04 06:59:17;;;;;;;0.73;0.47;;;23.50;45.30;;;;;;5093141;28;20031;-77
2023/06/04 07:01:43;;;;;;;0.57;0.57;;;23.50;45.50;;;;;;5094086;28;20026;-77
2023/06/04 07:04:09;;;;;;;0.70;0.70;;;23.50;45.10;;;;;;5093165;28;20032;-77
2023/06/04 07:06:36;;;;;;;0.30;0.30;;;23.50;45.00;;;;;;5094277;28;20116;-80
2023/06/04 07:09:03;;;;;;;0.85;0.60;;;23.40;45.10;;;;;;5092966;28;20498;-82
2023/06/04 07:11:29;;;;;;;1.35;0.68;;;23.30;45.30;;;;;;5093026;28;20044;-80
2023/06/04 07:13:55;;;;;;;1.98;0.50;;;23.40;45.10;;;;;;5093156;28;20663;-82
2023/06/04 07:16:21;;;;;;;0.50;0.43;;;23.30;45.40;;;;;;5094935;28;20036;-81
2023/06/04 07:18:51;;;;;;;0.32;0.30;;;23.30;45.60;;;;;;5092624;28;20028;-82
2023/06/04 07:21:19;;;;;;;1.38;0.50;;;23.30;45.30;;;;;;5093441;28;20036;-80
2023/06/04 07:23:49;;;;;;;0.47;0.40;;;23.30;45.20;;;;;;5091179;28;20501;-81
2023/06/04 07:26:15;;;;;;;0.40;0.40;;;23.20;45.00;;;;;;5096543;28;20114;-78
2023/06/04 07:28:42;;;;;;;2.60;0.60;;;23.30;45.00;;;;;;5097336;28;20369;-84
2023/06/04 07:31:08;;;;;;;0.65;0.60;;;23.30;44.80;;;;;;5102315;28;20031;-81
2023/06/04 07:33:34;;;;;;;0.98;0.50;;;23.30;45.00;;;;;;5098520;28;20039;-89
2023/06/04 07:36:00;;;;;;;1.50;0.60;;;23.30;45.10;;;;;;5096214;27;20035;-79
2023/06/04 07:38:26;;;;;;;0.47;0.40;;;23.30;44.80;;;;;;5094582;28;20524;-78
2023/06/04 07:40:52;;;;;;;1.63;0.40;;;23.30;44.80;;;;;;5092578;28;20035;-78
2023/06/04 07:43:18;;;;;;;0.50;0.50;;;23.30;44.30;;;;;;5093364;28;20097;-80
2023/06/04 07:45:44;;;;;;;1.95;0.30;;;23.30;44.30;;;;;;5075422;28;20027;-80
2023/06/04 07:48:11;;;;;;;0.73;0.40;;;23.20;44.50;;;;;;5092752;28;20076;-79
2023/06/04 07:50:37;;;;;;;0.88;0.50;;;23.10;44.70;;;;;;5093138;28;20055;-78
2023/06/04 07:53:03;;;;;;;0.50;0.28;;;23.10;44.70;;;;;;5077505;28;20024;-81
2023/06/04 07:55:29;;;;;;;1.55;0.40;;;23.10;44.80;;;;;;5100914;28;20051;-81
2023/06/04 07:57:55;;;;;;;1.65;0.30;;;23.10;45.00;;;;;;5097561;28;21637;-79
2023/06/04 08:00:21;;;;;;;1.42;0.50;;;23.10;45.20;;;;;;5093976;28;20039;-77
2023/06/04 08:02:48;;;;;;;2.08;0.47;;;23.00;44.90;;;;;;5093696;28;20032;-75
2023/06/04 08:05:14;;;;;;;0.40;0.30;;;23.00;45.10;;;;;;5091680;28;20028;-79
2023/06/04 08:07:41;;;;;;;2.53;0.43;;;22.90;44.20;;;;;;5094895;28;20080;-76
2023/06/04 08:10:07;;;;;;;0.35;0.35;;;22.80;45.00;;;;;;5092972;28;20057;-76
2023/06/04 08:12:33;;;;;;;0.32;0.32;;;22.70;44.10;;;;;;5095114;28;20502;-78
2023/06/04 08:14:59;;;;;;;2.40;0.50;;;22.60;43.90;;;;;;5093804;28;20130;-76
2023/06/04 08:17:25;;;;;;;1.75;0.60;;;22.50;44.90;;;;;;5092227;28;20460;-82
2023/06/04 08:19:57;;;;;;;6.22;0.80;;;22.00;45.90;;;;;;5098159;28;20501;-77
2023/06/04 08:22:37;;;;;;;0.95;0.63;;;21.80;46.80;;;;;;5098731;28;20047;-79
2023/06/04 08:25:04;;;;;;;3.30;0.60;;;21.60;47.80;;;;;;5099948;28;20035;-78
2023/06/04 08:27:50;;;;;;;0.75;0.60;;;21.50;46.90;;;;;;5096131;28;20035;-77
2023/06/04 08:30:36;;;;;;;1.13;0.70;;;21.40;48.20;;;;;;5093906;28;20085;-76
2023/06/04 08:33:07;;;;;;;1.35;0.65;;;21.30;48.90;;;;;;5093709;28;20649;-80
2023/06/04 08:35:43;;;;;;;1.13;0.60;;;21.30;46.20;;;;;;5093410;28;20059;-79
2023/06/04 08:38:09;;;;;;;1.10;0.75;;;21.20;46.70;;;;;;5091870;28;20470;-77
2023/06/04 08:40:35;;;;;;;3.13;0.50;;;21.20;46.50;;;;;;5094906;28;20520;-84
2023/06/04 08:43:01;;;;;;;1.67;0.50;;;21.10;47.40;;;;;;5082902;28;20032;-84
2023/06/04 08:45:28;;;;;;;0.80;0.75;;;21.00;47.10;;;;;;5091037;27;20090;-83
2023/06/04 08:47:54;;;;;;;2.00;0.75;;;20.90;48.70;;;;;;5092762;28;20073;-79
2023/06/04 08:50:25;;;;;;;4.30;0.60;;;20.80;48.50;;;;;;5090299;28;20053;-79
2023/06/04 08:52:55;;;;;;;5.57;0.93;;;20.70;46.90;;;;;;5085659;28;20410;-84
2023/06/04 08:55:22;;;;;;;2.70;0.50;;;20.70;47.70;;;;;;5092474;28;20389;-83
2023/06/04 08:57:51;;;;;;;11.88;0.85;;;20.70;47.80;;;;;;5093464;28;20040;-79
2023/06/04 09:00:18;;;;;;;4.60;0.60;;;20.70;48.30;;;;;;5092582;28;20139;-81
2023/06/04 09:02:45;;;;;;;0.68;0.68;;;20.70;46.90;;;;;;5090053;28;20035;-80
2023/06/04 09:05:19;;;;;;;1.75;0.68;;;20.60;47.50;;;;;;5091651;28;20032;-80
2023/06/04 09:07:46;;;;;;;4.45;0.80;;;20.70;48.00;;;;;;5090786;28;20058;-77
2023/06/04 09:10:17;;;;;;;1.90;0.63;;;20.70;46.60;;;;;;5091896;28;20051;-79
2023/06/04 09:12:46;;;;;;;1.23;0.80;;;20.70;47.40;;;;;;5092077;28;20040;-79
2023/06/04 09:15:12;;;;;;;0.40;0.40;;;20.70;47.70;;;;;;5093137;28;20039;-81
2023/06/04 09:17:38;;;;;;;1.58;0.60;;;20.70;46.50;;;;;;5092185;28;20024;-83
2023/06/04 09:20:08;;;;;;;4.28;1.00;;;20.60;47.80;;;;;;5094689;28;20047;-82
2023/06/04 09:22:35;;;;;;;7.15;1.17;;;20.70;47.50;;;;;;5094869;28;20437;-83
2023/06/04 09:25:06;;;;;;;2.55;0.73;;;20.60;49.20;;;;;;5053438;28;20452;-84
2023/06/04 09:27:41;;;;;;;3.10;0.73;;;20.40;46.00;;;;;;5093914;28;20096;-77
2023/06/04 09:30:09;;;;;;;2.33;0.75;;;20.30;50.80;;;;;;5094788;28;20425;-77
2023/06/04 09:32:35;;;;;;;2.63;0.75;;;20.40;49.40;;;;;;5095651;28;20498;-80
2023/06/04 09:35:17;;;;;;;6.80;1.25;;;20.50;49.80;;;;;;5093701;28;20034;-80
2023/06/04 09:37:53;;;;;;;2.55;0.93;;;20.50;49.60;;;;;;5095785;28;20152;-81
2023/06/04 09:40:19;;;;;;;4.93;0.93;;;20.50;49.10;;;;;;5095644;28;20509;-82
2023/06/04 09:42:53;;;;;;;3.10;0.80;;;20.60;49.20;;;;;;5096240;27;20024;-83
2023/06/04 09:45:31;;;;;;;1.00;0.80;;;20.60;49.00;;;;;;5094391;28;20039;-81
2023/06/04 09:48:01;;;;;;;1.33;0.63;;;20.40;47.70;;;;;;5094254;28;20432;-77
2023/06/04 09:50:33;;;;;;;1.40;1.20;;;20.40;48.10;;;;;;5095389;28;20108;-78
2023/06/04 09:52:59;;;;;;;1.13;0.80;;;20.30;48.90;;;;;;5095177;28;20081;-82
2023/06/04 09:55:26;;;;;;;1.10;0.60;;;20.20;48.30;;;;;;5095418;28;20036;-82
2023/06/04 09:57:53;;;;;;;1.38;0.98;;;20.20;49.20;;;;;;5095496;28;20042;-81
2023/06/04 10:00:22;;;;;;;3.30;0.60;;;20.20;48.40;;;;;;5094367;28;20350;-85
2023/06/04 10:02:49;;;;;;;2.45;0.70;;;20.20;48.70;;;;;;5095479;28;20177;-81
2023/06/04 10:05:15;;;;;;;2.63;0.70;;;20.20;48.20;;;;;;5094255;28;20077;-81
2023/06/04 10:07:46;;;;;;;3.22;0.70;;;20.10;46.10;;;;;;5093435;28;20028;-79
2023/06/04 10:10:19;;;;;;;0.88;0.60;;;19.90;47.40;;;;;;5094729;28;20059;-84
2023/06/04 10:12:54;;;;;;;2.00;0.75;;;19.90;48.50;;;;;;5082282;28;20119;-82
2023/06/04 10:15:20;;;;;;;1.67;1.00;;;20.00;49.40;;;;;;5092440;28;20036;-83
2023/06/04 10:17:48;;;;;;;2.97;1.17;;;20.10;47.90;;;;;;5093255;28;20047;-83
2023/06/04 10:20:14;;;;;;;2.72;1.20;;;20.10;49.60;;;;;;5092193;28;20123;-81
2023/06/04 10:22:41;;;;;;;2.15;0.90;;;20.10;51.00;;;;;;5092924;28;20063;-81
2023/06/04 10:25:10;;;;;;;2.88;0.90;;;20.20;49.70;;;;;;5077126;28;20032;-83
2023/06/04 10:27:37;;;;;;;6.53;1.13;;;20.20;48.90;;;;;;5092861;28;20570;-79
2023/06/04 10:30:04;;;;;;;1.50;0.80;;;20.20;50.40;;;;;;5093145;28;20034;-82
2023/06/04 10:32:31;;;;;;;2.95;0.90;;;20.10;49.30;;;;;;5094100;28;20380;-82
2023/06/04 10:34:57;;;;;;;4.32;0.90;;;20.20;49.40;;;;;;5094787;28;20040;-82
2023/06/04 10:37:29;;;;;;;2.05;0.90;;;20.10;46.50;;;;;;5094954;28;20050;-82
2023/06/04 10:39:56;;;;;;;3.80;1.00;;;20.10;50.20;;;;;;5095505;28;20517;-82
2023/06/04 10:42:24;;;;;;;0.95;0.90;;;20.10;47.40;;;;;;5094601;28;20516;-83
2023/06/04 10:44:55;;;;;;;0.95;0.70;;;20.00;45.80;;;;;;5099253;28;20056;-82
2023/06/04 10:47:25;;;;;;;1.90;0.82;;;20.10;47.90;;;;;;5094942;28;20391;-82
2023/06/04 10:49:55;;;;;;;1.05;0.77;;;20.10;46.30;;;;;;5099864;28;20028;-83
2023/06/04 10:52:24;;;;;;;1.42;0.90;;;20.10;48.00;;;;;;5092959;28;20402;-82
2023/06/04 10:54:53;;;;;;;0.82;0.80;;;20.00;47.10;;;;;;5093712;28;20040;-82
2023/06/04 10:57:19;;;;;;;1.77;0.85;;;19.90;46.10;;;;;;5092542;28;20028;-81
2023/06/04 10:59:58;;;;;;;4.30;1.00;;;19.80;47.10;;;;;;5097107;28;20032;-83
2023/06/04 11:02:25;;;;;;;3.28;0.93;;;19.80;47.80;;;;;;5098261;28;20066;-82
2023/06/04 11:05:09;;;;;;;2.00;0.75;;;19.90;47.60;;;;;;5098599;28;20028;-83
2023/06/04 11:07:46;;;;;;;1.40;0.90;;;19.80;46.30;;;;;;5097548;28;20046;-83
2023/06/04 11:10:13;;;;;;;1.20;0.93;;;19.70;47.40;;;;;;5083869;28;20048;-82
2023/06/04 11:12:47;;;;;;;1.10;1.00;;;19.80;47.60;;;;;;5097858;28;20498;-82
2023/06/04 11:15:14;;;;;;;2.45;0.95;;;19.90;47.20;;;;;;5084868;28;20412;-83
2023/06/04 11:17:54;;;;;;;1.00;0.82;;;19.90;47.30;;;;;;5096904;28;20036;-80
2023/06/04 11:20:22;;;;;;;1.35;0.80;;;19.90;47.10;;;;;;5105338;27;20038;-81
2023/06/04 11:22:52;;;;;;;2.20;0.88;;;19.90;46.70;;;;;;5098153;28;20056;-82
2023/06/04 11:25:19;;;;;;;0.73;0.70;;;19.90;47.80;;;;;;5092574;28;20040;-84
2023/06/04 11:27:45;;;;;;;2.35;0.93;;;19.90;47.50;;;;;;5095497;28;20047;-83
2023/06/04 11:30:12;;;;;;;1.25;0.77;;;20.00;48.30;;;;;;5108930;28;20391;-82
2023/06/04 11:32:38;;;;;;;1.23;0.70;;;20.00;47.30;;;;;;5113560;28;20115;-79
2023/06/04 11:35:06;;;;;;;0.68;0.60;;;20.00;47.00;;;;;;5104649;28;20501;-81
2023/06/04 11:37:33;;;;;;;3.53;0.98;;;20.00;46.40;;;;;;5096776;28;20848;-82
2023/06/04 11:40:00;;;;;;;3.88;0.77;;;19.90;47.80;;;;;;5097223;28;20027;-77
2023/06/04 11:42:29;;;;;;;3.35;0.88;;;20.00;47.90;;;;;;5095752;28;20038;-76
2023/06/04 11:44:58;;;;;;;7.85;0.93;;;20.00;46.00;;;;;;5099496;28;20055;-81
2023/06/04 11:47:25;;;;;;;2.58;0.90;;;20.00;46.90;;;;;;5098011;28;20160;-81
2023/06/04 11:49:58;;;;;;;0.77;0.77;;;20.00;46.90;;;;;;5097879;28;20432;-81
2023/06/04 11:52:24;;;;;;;0.70;0.60;;;20.10;48.40;;;;;;5096627;28;20126;-82
2023/06/04 11:54:50;;;;;;;0.63;0.63;;;20.10;47.20;;;;;;5095452;28;20074;-81
2023/06/04 11:57:16;;;;;;;1.15;1.02;;;20.10;45.00;;;;;;5097266;28;20032;-80
2023/06/04 11:59:43;;;;;;;4.05;0.90;;;19.90;45.40;;;;;;5097639;28;20120;-82
2023/06/04 12:02:09;;;;;;;0.73;0.73;;;19.90;47.80;;;;;;5097153;28;20066;-81
2023/06/04 12:04:35;;;;;;;0.88;0.85;;;20.00;46.80;;;;;;5097650;28;20051;-81
2023/06/04 12:07:02;;;;;;;2.35;1.35;;;20.00;46.10;;;;;;5097622;27;20027;-80
2023/06/04 12:09:37;;;;;;;1.25;1.00;;;20.00;46.70;;;;;;5095811;28;20152;-81
2023/06/04 12:12:08;;;;;;;3.13;1.23;;;20.00;45.80;;;;;;5097594;27;20034;-80
2023/06/04 12:14:34;;;;;;;2.35;1.08;;;19.90;45.10;;;;;;5096320;28;20074;-80
2023/06/04 12:17:08;;;;;;;2.50;1.00;;;19.70;44.70;;;;;;5079853;28;20034;-79
2023/06/04 12:19:48;;;;;;;1.67;1.10;;;19.80;45.80;;;;;;5095021;28;20020;-79
2023/06/04 12:22:14;;;;;;;1.35;0.98;;;19.80;48.30;;;;;;5094411;28;20028;-81
2023/06/04 12:24:53;;;;;;;1.27;0.90;;;19.90;48.40;;;;;;5096232;28;20069;-79
2023/06/04 12:27:23;;;;;;;1.13;0.90;;;19.90;47.20;;;;;;5095284;28;20035;-83
2023/06/04 12:29:59;;;;;;;2.20;1.17;;;19.80;47.60;;;;;;5071410;28;20039;-84
2023/06/04 12:32:25;;;;;;;2.40;1.00;;;19.80;48.20;;;;;;5094951;28;20040;-81
2023/06/04 12:34:51;;;;;;;2.85;1.27;;;19.90;49.90;;;;;;5096928;28;20035;-83
2023/06/04 12:37:18;;;;;;;3.60;1.17;;;19.90;48.20;;;;;;5096764;28;20057;-82
2023/06/04 12:39:44;;;;;;;2.92;1.20;;;19.80;46.40;;;;;;5078624;28;20428;-84
2023/06/04 12:42:10;;;;;;;1.52;1.13;;;19.70;48.30;;;;;;5095035;28;20028;-79
2023/06/04 12:44:40;;;;;;;2.05;1.20;;;19.70;49.40;;;;;;5096472;28;20131;-79
2023/06/04 12:47:07;;;;;;;2.85;1.65;;;19.80;50.60;;;;;;5095351;28;20093;-82
2023/06/04 12:49:33;;;;;;;3.05;0.90;;;19.80;46.80;;;;;;5096829;28;20028;-77
2023/06/04 12:51:59;;;;;;;1.33;1.13;;;19.70;47.50;;;;;;5095272;28;20425;-77
2023/06/04 12:54:27;;;;;;;0.88;0.88;;;19.60;46.00;;;;;;5094630;28;20067;-77